Time;durP1;ratioP1;P1;durP2;ratioP2;P2;SDS_P1;SDS_P2;PMS_P1;PMS_P2;Temp;Humidity;BMP_temperature;BMP_pressure;BME280_temperature;BME280_humidity;BME280_pressure;Samples;Min_cycle;Max_cycle;Signal;HPM_P1;HPM_P2
2021/04/07 00:02:07;;;;;;;9.43;7.43;;;18.30;78.60;;;;;;4940698;28;95871;-50
2021/04/07 00:04:38;;;;;;;11.70;8.98;;;18.30;78.70;;;;;;4941499;28;95839;-51
2021/04/07 00:07:07;;;;;;;13.50;9.13;;;18.30;78.60;;;;;;4947463;28;95653;-49
2021/04/07 00:09:37;;;;;;;11.68;8.35;;;18.30;78.70;;;;;;4946594;28;95787;-50
2021/04/07 00:12:07;;;;;;;10.52;8.45;;;18.30;78.60;;;;;;4936799;28;96383;-49
2021/04/07 00:14:37;;;;;;;10.32;8.38;;;18.30;78.70;;;;;;4957093;28;96098;-50
2021/04/07 00:17:06;;;;;;;9.77;8.15;;;18.40;79.00;;;;;;4937535;28;95664;-44
2021/04/07 00:19:38;;;;;;;10.20;8.67;;;18.40;79.00;;;;;;4939936;28;96057;-50
2021/04/07 00:22:08;;;;;;;10.55;7.90;;;18.50;78.80;;;;;;4960090;28;98117;-52
2021/04/07 00:24:41;;;;;;;12.45;8.00;;;18.70;78.40;;;;;;4946759;28;95771;-52
2021/04/07 00:27:13;;;;;;;11.20;7.30;;;18.80;78.80;;;;;;4948054;28;95156;-50
2021/04/07 00:29:44;;;;;;;10.05;7.45;;;18.90;78.00;;;;;;4939943;28;95965;-48
2021/04/07 00:32:15;;;;;;;;;;;19.00;77.90;;;;;;4930876;28;96380;-49
2021/04/07 00:34:45;;;;;;;8.85;7.57;;;19.00;77.70;;;;;;4939281;28;95641;-51
2021/04/07 00:37:15;;;;;;;10.68;8.13;;;19.10;77.60;;;;;;4949076;28;95973;-53
2021/04/07 00:39:46;;;;;;;10.93;8.32;;;19.20;77.50;;;;;;4940016;28;102209;-53
2021/04/07 00:42:17;;;;;;;9.63;7.80;;;19.10;77.00;;;;;;4945872;28;95777;-50
2021/04/07 00:44:48;;;;;;;10.48;7.68;;;19.20;77.00;;;;;;4936926;28;95504;-55
2021/04/07 00:47:20;;;;;;;10.85;7.68;;;19.20;76.90;;;;;;4929377;28;98490;-53
2021/04/07 00:49:53;;;;;;;10.82;8.40;;;19.20;77.00;;;;;;4930891;28;95488;-53
2021/04/07 00:52:25;;;;;;;13.10;9.32;;;19.20;77.00;;;;;;4926590;28;96995;-52
2021/04/07 00:54:56;;;;;;;10.30;7.93;;;19.30;77.10;;;;;;4939261;28;95870;-50
2021/04/07 00:57:26;;;;;;;9.73;8.73;;;19.30;77.00;;;;;;4939262;28;95766;-45
2021/04/07 00:59:56;;;;;;;10.80;7.88;;;19.30;76.80;;;;;;4933826;28;96044;-53
2021/04/07 01:02:25;;;;;;;11.13;7.68;;;19.30;76.80;;;;;;4939128;28;96058;-45
2021/04/07 01:04:55;;;;;;;10.68;7.65;;;19.40;76.70;;;;;;4939332;28;95836;-54
2021/04/07 01:07:25;;;;;;;9.13;7.47;;;19.40;76.80;;;;;;4939315;28;95848;-54
2021/04/07 01:09:56;;;;;;;12.00;8.98;;;19.50;76.70;;;;;;4947893;28;95671;-46
2021/04/07 01:12:27;;;;;;;9.75;7.47;;;19.50;76.50;;;;;;4944895;28;95893;-43
2021/04/07 01:14:56;;;;;;;10.70;8.20;;;19.60;76.50;;;;;;4939239;28;95353;-52
2021/04/07 01:17:26;;;;;;;11.05;8.43;;;19.60;76.30;;;;;;4940885;28;95962;-47
2021/04/07 01:19:57;;;;;;;9.40;7.37;;;19.70;76.10;;;;;;4945936;28;95749;-53
2021/04/07 01:22:31;;;;;;;10.00;8.32;;;19.80;76.00;;;;;;4940946;28;96552;-54
2021/04/07 01:25:03;;;;;;;11.68;8.70;;;19.80;75.70;;;;;;4940573;28;95372;-51
2021/04/07 01:27:36;;;;;;;10.38;7.53;;;19.90;75.80;;;;;;4936099;28;95932;-46
2021/04/07 01:30:11;;;;;;;9.25;7.75;;;19.90;75.80;;;;;;4934404;28;96269;-53
2021/04/07 01:32:42;;;;;;;10.57;7.47;;;20.00;75.50;;;;;;4932538;28;96203;-47
2021/04/07 01:35:16;;;;;;;10.48;7.70;;;20.10;75.30;;;;;;4937360;28;95856;-55
2021/04/07 01:37:46;;;;;;;10.20;6.78;;;20.20;75.50;;;;;;4934445;28;98346;-54
2021/04/07 01:40:18;;;;;;;8.20;7.40;;;20.40;75.30;;;;;;4943191;28;95727;-47
2021/04/07 01:42:49;;;;;;;9.65;7.45;;;20.60;75.10;;;;;;4934430;28;96542;-53
2021/04/07 01:45:20;;;;;;;11.88;7.93;;;20.70;74.80;;;;;;4933948;28;95719;-50
2021/04/07 01:47:50;;;;;;;13.57;8.00;;;20.90;74.20;;;;;;4938077;28;95299;-53
2021/04/07 01:50:21;;;;;;;20.80;8.38;;;20.90;73.50;;;;;;4938530;28;95734;-53
2021/04/07 01:52:51;;;;;;;10.50;8.68;;;21.00;73.30;;;;;;4937813;28;101098;-44
2021/04/07 01:55:20;;;;;;;13.45;9.05;;;20.90;73.00;;;;;;4936307;28;97235;-52
2021/04/07 01:57:50;;;;;;;15.35;8.98;;;20.80;73.20;;;;;;4933991;28;95730;-51
2021/04/07 02:00:20;;;;;;;12.18;9.82;;;20.80;73.30;;;;;;4936609;28;95698;-52
2021/04/07 02:02:50;;;;;;;11.65;8.38;;;20.80;73.40;;;;;;4941012;28;95909;-49
2021/04/07 02:05:22;;;;;;;13.75;9.73;;;20.80;73.40;;;;;;4934814;28;96029;-46
2021/04/07 02:07:51;;;;;;;14.75;9.90;;;20.80;73.50;;;;;;4933055;28;95314;-52
2021/04/07 02:10:21;;;;;;;10.85;8.55;;;20.80;73.40;;;;;;4936644;28;95586;-53
2021/04/07 02:12:54;;;;;;;10.13;8.38;;;20.80;73.40;;;;;;4932255;28;96112;-45
2021/04/07 02:15:25;;;;;;;9.57;8.48;;;20.90;73.60;;;;;;4940251;28;95605;-55
2021/04/07 02:17:57;;;;;;;10.35;7.85;;;21.10;73.30;;;;;;4939072;28;95693;-45
2021/04/07 02:20:27;;;;;;;9.20;7.55;;;21.40;73.20;;;;;;4944227;28;95834;-45
2021/04/07 02:22:57;;;;;;;10.52;8.55;;;21.50;72.80;;;;;;4943171;28;95942;-46
2021/04/07 02:25:31;;;;;;;12.63;8.63;;;21.70;72.50;;;;;;4936737;28;95882;-45
2021/04/07 02:28:02;;;;;;;;;;;21.80;72.20;;;;;;4941770;28;95675;-45
2021/04/07 02:30:34;;;;;;;11.30;8.38;;;22.00;72.20;;;;;;4929450;28;96716;-45
2021/04/07 02:33:09;;;;;;;10.63;7.38;;;22.10;71.90;;;;;;4920362;28;95926;-45
2021/04/07 02:35:39;;;;;;;9.77;7.15;;;22.20;71.90;;;;;;4910289;28;96062;-44
2021/04/07 02:38:12;;;;;;;7.53;6.72;;;22.30;71.70;;;;;;4915682;28;95737;-45
2021/04/07 02:40:43;;;;;;;9.30;7.75;;;22.30;71.50;;;;;;4922186;28;95438;-45
2021/04/07 02:43:14;;;;;;;9.73;7.15;;;22.40;71.40;;;;;;4926358;28;95866;-50
2021/04/07 02:45:45;;;;;;;10.32;7.60;;;22.50;71.10;;;;;;4916520;28;96812;-45
2021/04/07 02:48:14;;;;;;;10.70;8.53;;;22.40;70.50;;;;;;4936987;28;96277;-46
2021/04/07 02:50:44;;;;;;;9.23;7.70;;;22.30;70.90;;;;;;4935636;28;95776;-46
2021/04/07 02:53:14;;;;;;;9.18;8.18;;;22.20;71.10;;;;;;4950955;28;98092;-45
2021/04/07 02:55:45;;;;;;;8.95;7.47;;;22.20;71.20;;;;;;4942661;28;96460;-45
2021/04/07 02:58:14;;;;;;;11.10;8.68;;;22.30;71.30;;;;;;4930819;28;95912;-45
2021/04/07 03:00:44;;;;;;;8.32;7.53;;;22.30;71.40;;;;;;4929968;28;95339;-46
2021/04/07 03:03:14;;;;;;;8.40;7.53;;;22.30;71.50;;;;;;4933115;28;95924;-45
2021/04/07 03:05:45;;;;;;;;;;;22.30;71.50;;;;;;4935812;28;95480;-46
2021/04/07 03:08:18;;;;;;;;;;;22.40;71.40;;;;;;4939395;28;95751;-47
2021/04/07 03:10:48;;;;;;;8.75;7.78;;;22.40;71.50;;;;;;4936761;28;95886;-47
2021/04/07 03:13:17;;;;;;;8.63;7.75;;;22.50;71.40;;;;;;4948218;28;95840;-45
2021/04/07 03:15:48;;;;;;;9.90;7.85;;;22.50;71.50;;;;;;4938559;28;95543;-46
2021/04/07 03:18:18;;;;;;;10.80;7.57;;;22.50;71.30;;;;;;4939371;28;95551;-47
2021/04/07 03:20:48;;;;;;;9.30;7.20;;;22.60;71.50;;;;;;4933196;28;95773;-45
2021/04/07 03:23:18;;;;;;;8.25;7.32;;;22.60;71.50;;;;;;4934414;28;95858;-45
2021/04/07 03:25:50;;;;;;;8.35;6.75;;;22.60;71.60;;;;;;4934882;28;95390;-46
2021/04/07 03:28:24;;;;;;;10.23;8.05;;;22.70;71.60;;;;;;4942200;28;95973;-45
2021/04/07 03:30:55;;;;;;;8.90;6.90;;;22.70;71.60;;;;;;4932768;28;99438;-48
2021/04/07 03:33:30;;;;;;;9.15;8.07;;;22.70;71.40;;;;;;4945300;28;95916;-45
2021/04/07 03:36:01;;;;;;;9.43;7.22;;;22.70;71.50;;;;;;4935026;28;97107;-45
2021/04/07 03:38:34;;;;;;;;;;;22.80;71.80;;;;;;4957501;28;95919;-44
2021/04/07 03:41:07;;;;;;;10.30;7.13;;;22.80;71.90;;;;;;4939621;28;95364;-55
2021/04/07 03:43:38;;;;;;;11.02;7.32;;;22.80;71.80;;;;;;4973171;28;98051;-54
2021/04/07 03:46:09;;;;;;;6.80;6.10;;;22.90;72.00;;;;;;4932393;28;95705;-53
2021/04/07 03:48:38;;;;;;;9.32;7.15;;;22.80;72.00;;;;;;4935087;28;95759;-51
2021/04/07 03:51:08;;;;;;;8.57;6.82;;;22.90;72.10;;;;;;4936503;28;95950;-44
2021/04/07 03:53:38;;;;;;;8.13;6.68;;;22.90;72.10;;;;;;4930448;28;96083;-55
2021/04/07 03:56:10;;;;;;;9.10;6.95;;;23.00;72.10;;;;;;4925559;28;95874;-46
2021/04/07 03:58:40;;;;;;;;;;;23.00;72.10;;;;;;4954248;28;102203;-56
2021/04/07 04:01:12;;;;;;;8.73;7.10;;;23.00;72.20;;;;;;4937870;28;95395;-53
2021/04/07 04:03:42;;;;;;;9.38;6.53;;;23.10;72.40;;;;;;4931912;28;96329;-52
2021/04/07 04:06:13;;;;;;;8.40;6.93;;;23.00;72.40;;;;;;4939626;28;95736;-53
2021/04/07 04:08:44;;;;;;;8.13;7.18;;;23.00;72.50;;;;;;4947985;28;95342;-45
2021/04/07 04:11:13;;;;;;;7.53;6.23;;;23.10;72.40;;;;;;4941248;28;96032;-51
2021/04/07 04:13:43;;;;;;;9.80;6.00;;;23.20;72.30;;;;;;4951920;28;96675;-55
2021/04/07 04:16:12;;;;;;;7.78;6.18;;;23.30;71.90;;;;;;4925765;28;96379;-52
2021/04/07 04:18:43;;;;;;;10.40;5.73;;;23.40;71.80;;;;;;4936793;28;95691;-56
2021/04/07 04:21:13;;;;;;;6.70;5.22;;;23.40;71.60;;;;;;4942435;28;95835;-54
2021/04/07 04:23:43;;;;;;;9.63;6.25;;;23.50;71.20;;;;;;4936095;28;95918;-56
2021/04/07 04:26:15;;;;;;;;;;;23.60;71.20;;;;;;4938455;28;96321;-55
2021/04/07 04:28:46;;;;;;;6.35;5.72;;;23.60;72.30;;;;;;4935398;28;98407;-56
2021/04/07 04:31:18;;;;;;;7.70;5.55;;;23.60;71.90;;;;;;4941784;28;95824;-53
2021/04/07 04:33:48;;;;;;;6.72;5.57;;;23.70;71.90;;;;;;4933371;28;95928;-56
2021/04/07 04:36:19;;;;;;;6.35;5.75;;;23.80;71.80;;;;;;4944194;28;96652;-54
2021/04/07 04:38:51;;;;;;;9.15;5.90;;;23.90;71.60;;;;;;4938709;28;95824;-56
2021/04/07 04:41:23;;;;;;;6.55;5.55;;;24.00;71.50;;;;;;4957416;28;95912;-46
2021/04/07 04:43:54;;;;;;;7.55;5.45;;;24.10;71.40;;;;;;4929327;28;101581;-55
2021/04/07 04:46:26;;;;;;;6.65;5.18;;;24.20;71.40;;;;;;4939691;28;95579;-57
2021/04/07 04:48:56;;;;;;;7.22;5.70;;;24.30;72.00;;;;;;4942258;28;95899;-43
2021/04/07 04:51:25;;;;;;;6.28;5.68;;;24.40;71.90;;;;;;4937829;28;95575;-56
2021/04/07 04:53:55;;;;;;;7.97;5.50;;;24.50;71.10;;;;;;4934517;28;96519;-56
2021/04/07 04:56:25;;;;;;;7.13;5.47;;;24.60;71.10;;;;;;4941161;28;95731;-57
2021/04/07 04:58:54;;;;;;;6.88;6.03;;;24.60;70.40;;;;;;4936380;28;95876;-53
2021/04/07 05:01:24;;;;;;;7.38;6.05;;;24.70;70.40;;;;;;4925224;28;95795;-53
2021/04/07 05:03:54;;;;;;;5.88;5.00;;;24.70;70.30;;;;;;4941365;28;96006;-43
2021/04/07 05:06:25;;;;;;;10.90;6.25;;;24.80;70.50;;;;;;4941326;28;99145;-54
2021/04/07 05:08:55;;;;;;;6.63;4.93;;;24.70;70.00;;;;;;4947769;28;95813;-43
2021/04/07 05:11:25;;;;;;;6.93;6.22;;;24.80;70.40;;;;;;4939103;28;95856;-56
2021/04/07 05:13:57;;;;;;;8.68;6.55;;;24.80;69.90;;;;;;4941872;28;95814;-55
2021/04/07 05:16:27;;;;;;;7.82;5.78;;;24.90;69.90;;;;;;4926428;28;95937;-44
2021/04/07 05:18:57;;;;;;;5.82;5.22;;;24.90;70.10;;;;;;4952325;28;95527;-43
2021/04/07 05:21:26;;;;;;;8.13;6.20;;;24.90;70.10;;;;;;4940589;28;96033;-56
2021/04/07 05:23:56;;;;;;;9.32;7.70;;;24.90;69.70;;;;;;4939155;28;96559;-43
2021/04/07 05:26:28;;;;;;;11.38;7.18;;;24.60;70.40;;;;;;4936814;28;95763;-66
2021/04/07 05:28:59;;;;;;;8.18;6.65;;;24.70;70.60;;;;;;4941096;28;95981;-57
2021/04/07 05:31:30;;;;;;;8.50;7.57;;;24.70;69.60;;;;;;4931731;28;99119;-43
2021/04/07 05:34:01;;;;;;;14.57;6.88;;;24.80;70.20;;;;;;4937144;28;95910;-56
2021/04/07 05:36:35;;;;;;;9.13;7.07;;;24.90;70.90;;;;;;4934546;28;96056;-43
2021/04/07 05:39:07;;;;;;;8.45;6.68;;;24.90;69.30;;;;;;4935494;28;95405;-56
2021/04/07 05:41:38;;;;;;;7.72;5.88;;;25.00;69.70;;;;;;4940951;28;95983;-55
2021/04/07 05:44:10;;;;;;;12.35;8.70;;;25.00;69.60;;;;;;4946008;28;96612;-56
2021/04/07 05:46:41;;;;;;;11.35;8.43;;;25.00;68.60;;;;;;4934255;28;95902;-56
2021/04/07 05:49:12;;;;;;;14.20;9.38;;;24.60;69.50;;;;;;4933884;28;95146;-53
2021/04/07 05:51:41;;;;;;;12.00;8.07;;;24.40;69.90;;;;;;4934380;28;95999;-55
2021/04/07 05:54:10;;;;;;;12.45;8.32;;;24.30;69.70;;;;;;4939199;28;95821;-56
2021/04/07 05:56:40;;;;;;;11.05;9.35;;;24.20;69.80;;;;;;4936116;28;95780;-56
2021/04/07 05:59:09;;;;;;;10.43;8.75;;;24.20;70.50;;;;;;4938480;28;96603;-55
2021/04/07 06:01:39;;;;;;;12.93;8.88;;;24.10;70.50;;;;;;4938300;28;96032;-55
2021/04/07 06:04:08;;;;;;;13.13;9.98;;;24.10;69.90;;;;;;4938741;28;96811;-44
2021/04/07 06:06:42;;;;;;;17.70;8.48;;;24.00;70.80;;;;;;4930641;28;95736;-58
2021/04/07 06:09:12;;;;;;;17.10;8.38;;;24.10;70.40;;;;;;4934028;28;95995;-54
2021/04/07 06:11:41;;;;;;;26.00;9.68;;;24.20;71.50;;;;;;4942426;28;95977;-51
2021/04/07 06:14:11;;;;;;;17.38;9.60;;;24.10;68.40;;;;;;4943897;28;95915;-53
2021/04/07 06:16:41;;;;;;;13.73;8.10;;;24.10;71.20;;;;;;4948072;28;95881;-59
2021/04/07 06:19:14;;;;;;;12.50;8.25;;;24.20;70.70;;;;;;4945391;28;95532;-56
2021/04/07 06:21:44;;;;;;;9.73;8.60;;;24.40;70.20;;;;;;4949181;28;95368;-56
2021/04/07 06:24:15;;;;;;;13.07;7.78;;;24.50;70.00;;;;;;4930667;28;95876;-56
2021/04/07 06:26:46;;;;;;;9.73;8.00;;;24.60;69.00;;;;;;4946192;28;95314;-58
2021/04/07 06:29:16;;;;;;;10.10;8.05;;;24.60;69.50;;;;;;4940405;28;95699;-57
2021/04/07 06:31:47;;;;;;;14.65;8.27;;;24.60;69.30;;;;;;4935356;28;95879;-56
2021/04/07 06:34:18;;;;;;;14.68;8.50;;;24.70;69.30;;;;;;4932129;28;95856;-57
2021/04/07 06:36:54;;;;;;;10.60;7.22;;;24.70;69.10;;;;;;4938045;28;95871;-57
2021/04/07 06:39:24;;;;;;;12.73;8.00;;;24.70;69.00;;;;;;4941261;28;95862;-45
2021/04/07 06:41:54;;;;;;;;;;;24.60;69.10;;;;;;4945509;28;95769;-46
2021/04/07 06:44:26;;;;;;;9.98;7.95;;;24.60;68.90;;;;;;4941104;28;96389;-56
2021/04/07 06:46:55;;;;;;;;;;;24.60;69.00;;;;;;4940064;28;95444;-46
2021/04/07 06:49:27;;;;;;;9.88;7.65;;;24.60;69.00;;;;;;4945062;28;95861;-54
2021/04/07 06:51:57;;;;;;;8.70;7.43;;;24.60;69.00;;;;;;4941046;28;95840;-59
2021/04/07 06:54:28;;;;;;;22.45;8.80;;;24.60;69.20;;;;;;4941424;28;96271;-45
2021/04/07 06:56:58;;;;;;;24.25;8.85;;;24.50;69.00;;;;;;4929711;28;95359;-57
2021/04/07 06:59:30;;;;;;;20.45;8.90;;;24.40;69.10;;;;;;4941178;28;95343;-46
2021/04/07 07:01:59;;;;;;;12.52;8.02;;;24.40;69.50;;;;;;4953604;28;95406;-56
2021/04/07 07:04:29;;;;;;;12.15;8.43;;;24.20;70.10;;;;;;4932555;28;96595;-45
2021/04/07 07:07:00;;;;;;;16.38;9.18;;;24.10;70.70;;;;;;4943392;28;95744;-45
2021/04/07 07:09:30;;;;;;;17.40;8.60;;;24.20;70.30;;;;;;4934366;28;95319;-58
2021/04/07 07:12:00;;;;;;;13.75;8.43;;;24.20;70.60;;;;;;4940258;28;95790;-46
2021/04/07 07:14:31;;;;;;;9.80;7.43;;;24.30;70.60;;;;;;4950746;28;97860;-56
2021/04/07 07:17:03;;;;;;;14.65;8.65;;;24.30;70.50;;;;;;4938674;28;97323;-59
2021/04/07 07:19:33;;;;;;;12.23;9.57;;;24.30;70.10;;;;;;4932064;28;95388;-57
2021/04/07 07:22:07;;;;;;;11.48;8.70;;;24.20;70.20;;;;;;4943911;28;95786;-55
2021/04/07 07:24:39;;;;;;;10.93;8.43;;;24.10;70.40;;;;;;4937565;28;95855;-46
2021/04/07 07:27:10;;;;;;;14.75;8.85;;;24.10;71.00;;;;;;4951106;28;96636;-58
2021/04/07 07:29:41;;;;;;;14.60;10.13;;;24.00;71.20;;;;;;4939493;28;95283;-45
2021/04/07 07:32:12;;;;;;;;;;;23.90;71.70;;;;;;4927239;28;96022;-56
2021/04/07 07:34:43;;;;;;;19.20;10.32;;;23.80;71.60;;;;;;4940717;28;95791;-58
2021/04/07 07:37:25;;;;;;;19.15;8.32;;;23.60;71.90;;;;;;4941388;28;95922;-57
2021/04/07 07:39:55;;;;;;;19.50;10.90;;;23.50;72.20;;;;;;4945887;28;95793;-46
2021/04/07 07:42:27;;;;;;;41.42;11.30;;;23.30;72.90;;;;;;4933960;28;95723;-54
2021/04/07 07:44:58;;;;;;;25.95;9.55;;;23.30;73.40;;;;;;4942518;28;98401;-59
2021/04/07 07:47:31;;;;;;;17.38;9.48;;;23.40;72.50;;;;;;4929116;28;101382;-47
2021/04/07 07:50:05;;;;;;;33.35;10.57;;;23.50;73.30;;;;;;4942993;28;95464;-56
2021/04/07 07:52:36;;;;;;;19.52;10.93;;;23.60;72.20;;;;;;4935619;28;95351;-57
2021/04/07 07:55:18;;;;;;;16.50;9.90;;;23.60;72.40;;;;;;4943198;28;95934;-51
2021/04/07 07:57:58;;;;;;;17.00;9.15;;;23.60;72.00;;;;;;4941424;28;95411;-56
2021/04/07 08:00:27;;;;;;;19.33;9.75;;;23.50;71.90;;;;;;4938820;28;96736;-57
2021/04/07 08:03:12;;;;;;;14.48;8.93;;;23.30;71.90;;;;;;4942268;28;96218;-58
2021/04/07 08:05:44;;;;;;;12.68;8.88;;;23.20;72.80;;;;;;4933393;28;95950;-53
2021/04/07 08:08:13;;;;;;;;;;;23.10;73.00;;;;;;4939663;28;95898;-58
2021/04/07 08:10:44;;;;;;;21.65;10.95;;;23.10;72.90;;;;;;4940120;28;95957;-57
2021/04/07 08:13:16;;;;;;;20.73;9.70;;;23.00;72.50;;;;;;4935826;28;95777;-57
2021/04/07 08:15:48;;;;;;;14.95;9.35;;;22.80;72.80;;;;;;4932437;28;95921;-57
2021/04/07 08:18:21;;;;;;;18.70;10.10;;;22.50;73.10;;;;;;4938074;28;95881;-54
2021/04/07 08:20:53;;;;;;;17.58;10.93;;;22.40;74.40;;;;;;4954891;28;95898;-56
2021/04/07 08:23:27;;;;;;;12.00;9.05;;;22.30;75.00;;;;;;4938540;28;95705;-46
2021/04/07 08:26:01;;;;;;;11.40;9.55;;;22.00;75.00;;;;;;4945266;28;95969;-45
2021/04/07 08:28:34;;;;;;;11.77;9.80;;;21.90;75.10;;;;;;4941183;28;95987;-57
2021/04/07 08:31:10;;;;;;;16.67;10.18;;;21.90;76.60;;;;;;4942116;28;95839;-57
2021/04/07 08:33:50;;;;;;;16.75;9.63;;;21.90;76.00;;;;;;4942103;28;95887;-57
2021/04/07 08:36:25;;;;;;;47.47;11.93;;;21.90;75.00;;;;;;4945526;28;95808;-54
2021/04/07 08:39:06;;;;;;;20.98;10.63;;;21.80;75.60;;;;;;4936193;28;96025;-54
2021/04/07 08:41:36;;;;;;;27.45;11.30;;;21.60;76.50;;;;;;4938652;28;95809;-58
2021/04/07 08:44:09;;;;;;;72.18;13.90;;;21.60;76.80;;;;;;4958209;28;98157;-55
2021/04/07 08:46:46;;;;;;;119.78;18.27;;;21.50;76.60;;;;;;4932922;28;96455;-57
2021/04/07 08:49:42;;;;;;;34.33;12.05;;;21.30;77.20;;;;;;4939462;28;95812;-46
2021/04/07 08:52:24;;;;;;;25.77;10.82;;;21.30;77.60;;;;;;4934494;28;96819;-45
2021/04/07 08:54:58;;;;;;;42.05;13.63;;;21.40;77.60;;;;;;4941602;28;96276;-45
2021/04/07 08:57:31;;;;;;;66.20;15.32;;;21.50;76.80;;;;;;4939869;28;96559;-45
2021/04/07 09:00:22;;;;;;;34.83;13.35;;;21.40;76.70;;;;;;4934629;28;96095;-43
2021/04/07 09:02:54;;;;;;;30.13;12.15;;;21.30;77.50;;;;;;4939836;28;95663;-55
2021/04/07 09:05:36;;;;;;;18.60;12.05;;;21.20;77.30;;;;;;4942885;28;95795;-43
2021/04/07 09:08:10;;;;;;;18.95;11.73;;;21.10;77.70;;;;;;4941220;28;98373;-46
2021/04/07 09:10:51;;;;;;;18.17;11.48;;;21.10;78.00;;;;;;4940370;28;96010;-43
2021/04/07 09:13:26;;;;;;;15.85;11.18;;;21.10;78.20;;;;;;4941696;28;95893;-45
2021/04/07 09:16:05;;;;;;;26.13;12.35;;;21.20;77.70;;;;;;4928865;28;95383;-46
2021/04/07 09:18:47;;;;;;;22.48;11.52;;;21.10;77.20;;;;;;4919660;28;95964;-43
2021/04/07 09:21:20;;;;;;;19.50;11.43;;;21.00;78.50;;;;;;4922454;28;95727;-45
2021/04/07 09:24:01;;;;;;;18.23;10.20;;;21.20;78.50;;;;;;4924195;28;95789;-45
2021/04/07 09:26:32;;;;;;;19.65;12.13;;;21.20;77.40;;;;;;4918969;28;95922;-55
2021/04/07 09:29:03;;;;;;;18.02;11.98;;;20.90;77.40;;;;;;4920934;28;95974;-46
2021/04/07 09:31:38;;;;;;;19.70;12.80;;;20.60;78.10;;;;;;4924797;28;95790;-46
2021/04/07 09:34:14;;;;;;;14.60;11.75;;;20.40;79.10;;;;;;4944364;28;95865;-45
2021/04/07 09:36:47;;;;;;;16.83;13.82;;;20.30;79.40;;;;;;4937995;28;95663;-45
2021/04/07 09:39:25;;;;;;;15.15;11.70;;;20.20;80.30;;;;;;4945572;28;96768;-57
2021/04/07 09:41:57;;;;;;;15.85;12.65;;;20.50;79.40;;;;;;4943996;28;95882;-45
2021/04/07 09:44:28;;;;;;;20.75;13.82;;;20.40;78.70;;;;;;4947030;28;95801;-46
2021/04/07 09:46:59;;;;;;;24.25;12.50;;;20.00;79.60;;;;;;4940971;28;96271;-45
2021/04/07 09:49:30;;;;;;;19.10;13.17;;;20.00;81.00;;;;;;4947395;28;98712;-45
2021/04/07 09:52:01;;;;;;;21.60;13.30;;;20.20;81.00;;;;;;4948304;28;96314;-45
2021/04/07 09:54:39;;;;;;;55.00;17.03;;;20.40;79.70;;;;;;4949306;28;96308;-45
2021/04/07 09:57:12;;;;;;;83.13;16.88;;;20.30;79.50;;;;;;4945844;28;104174;-45
2021/04/07 09:59:45;;;;;;;50.40;14.82;;;20.10;80.00;;;;;;4946938;28;95924;-43
2021/04/07 10:02:26;;;;;;;36.95;16.00;;;20.10;80.10;;;;;;4944358;28;96028;-43
2021/04/07 10:04:58;;;;;;;36.22;14.43;;;19.90;80.70;;;;;;4942690;28;95784;-43
2021/04/07 10:07:33;;;;;;;21.63;12.07;;;19.70;81.20;;;;;;4938360;28;95324;-46
2021/04/07 10:10:02;;;;;;;25.50;15.02;;;19.50;82.00;;;;;;4944553;28;96030;-43
2021/04/07 10:12:33;;;;;;;22.08;14.10;;;19.40;83.00;;;;;;4943484;28;96188;-45
2021/04/07 10:15:06;;;;;;;22.08;13.00;;;19.40;83.10;;;;;;4942746;28;95556;-45
2021/04/07 10:17:40;;;;;;;22.20;12.43;;;19.40;82.70;;;;;;4940349;28;95837;-45
2021/04/07 10:20:14;;;;;;;19.65;12.57;;;19.40;82.80;;;;;;4943857;28;95860;-43
2021/04/07 10:22:49;;;;;;;22.38;12.45;;;19.30;83.20;;;;;;4943744;28;96402;-45
2021/04/07 10:25:22;;;;;;;20.60;13.32;;;19.40;83.20;;;;;;4946149;28;95803;-43
2021/04/07 10:27:54;;;;;;;19.95;12.27;;;19.40;82.80;;;;;;4946345;28;104626;-55
2021/04/07 10:30:26;;;;;;;22.70;13.05;;;19.20;82.40;;;;;;4939165;28;96512;-45
2021/04/07 10:33:00;;;;;;;19.48;11.93;;;19.10;83.50;;;;;;4946930;28;95854;-43
2021/04/07 10:35:38;;;;;;;21.70;13.25;;;19.10;83.80;;;;;;4950164;28;95686;-44
2021/04/07 10:38:15;;;;;;;17.85;14.23;;;19.00;84.40;;;;;;4945610;28;97496;-44
2021/04/07 10:40:46;;;;;;;21.45;12.50;;;19.00;84.60;;;;;;4945256;28;96539;-44
2021/04/07 10:43:19;;;;;;;18.52;12.65;;;19.00;84.30;;;;;;4945834;28;95765;-44
2021/04/07 10:46:03;;;;;;;14.70;12.00;;;18.90;84.20;;;;;;4940542;28;96209;-46
2021/04/07 10:48:37;;;;;;;22.38;12.98;;;18.90;84.20;;;;;;4948527;28;97513;-46
2021/04/07 10:51:08;;;;;;;17.98;11.65;;;18.80;84.50;;;;;;4947568;28;96712;-46
2021/04/07 10:53:43;;;;;;;18.57;12.00;;;18.80;84.10;;;;;;4942953;28;95897;-47
2021/04/07 10:56:16;;;;;;;22.63;12.30;;;18.80;84.70;;;;;;4946867;28;95937;-44
2021/04/07 10:58:52;;;;;;;16.73;11.27;;;18.80;84.50;;;;;;4944769;28;95888;-45
2021/04/07 11:01:34;;;;;;;17.77;11.45;;;18.80;84.00;;;;;;4941439;28;95864;-45
2021/04/07 11:04:11;;;;;;;17.35;13.15;;;18.70;84.00;;;;;;4944771;28;96084;-47
2021/04/07 11:06:42;;;;;;;20.85;12.70;;;18.70;84.10;;;;;;4950471;28;95686;-58
2021/04/07 11:09:13;;;;;;;17.80;12.20;;;18.60;84.00;;;;;;4945314;28;95950;-45
2021/04/07 11:11:44;;;;;;;18.02;13.00;;;18.50;83.80;;;;;;4945538;28;95858;-46
2021/04/07 11:14:16;;;;;;;20.48;13.75;;;18.50;84.10;;;;;;4943128;28;96004;-45
2021/04/07 11:16:59;;;;;;;29.13;13.77;;;18.60;84.20;;;;;;4945171;28;95614;-44
2021/04/07 11:19:35;;;;;;;24.83;12.68;;;18.60;84.00;;;;;;4943713;28;96190;-44
2021/04/07 11:22:06;;;;;;;15.52;10.65;;;18.60;83.40;;;;;;4949805;28;96494;-44
2021/04/07 11:24:37;;;;;;;21.90;12.02;;;18.50;83.60;;;;;;4945376;28;95735;-56
2021/04/07 11:27:09;;;;;;;21.70;12.02;;;18.40;83.70;;;;;;4947476;28;95559;-56
2021/04/07 11:29:40;;;;;;;17.23;11.90;;;18.20;85.00;;;;;;4941176;28;95732;-44
2021/04/07 11:32:11;;;;;;;19.92;10.93;;;18.10;86.00;;;;;;4943160;28;95875;-44
2021/04/07 11:35:13;;;;;;;18.37;10.40;;;18.10;85.00;;;;;;4941107;28;95567;-55
2021/04/07 11:46:01;;;;;;;17.88;11.07;;;18.10;84.60;;;;;;4939696;28;95786;-45
2021/04/07 11:48:44;;;;;;;15.30;9.93;;;18.20;84.10;;;;;;4946161;28;95851;-44
2021/04/07 11:51:14;;;;;;;21.88;11.30;;;17.90;84.80;;;;;;4943939;28;95354;-46
2021/04/07 11:53:45;;;;;;;21.77;10.95;;;17.50;86.50;;;;;;4948545;28;95933;-53
2021/04/07 11:56:16;;;;;;;19.10;12.93;;;17.10;87.80;;;;;;4943256;28;95835;-46
2021/04/07 11:58:46;;;;;;;21.35;12.05;;;17.00;88.40;;;;;;4963460;28;95409;-46
2021/04/07 12:01:16;;;;;;;21.27;12.50;;;16.80;90.00;;;;;;4939278;28;95427;-46
2021/04/07 12:03:46;;;;;;;20.25;12.38;;;16.80;90.10;;;;;;4949677;28;96473;-55
2021/04/07 12:06:18;;;;;;;18.33;12.38;;;16.80;90.40;;;;;;4946076;28;96061;-54
2021/04/07 12:08:48;;;;;;;;;;;17.00;89.60;;;;;;4950036;28;97722;-45
2021/04/07 12:11:21;;;;;;;16.83;10.98;;;16.90;89.70;;;;;;4948486;28;95750;-45
2021/04/07 12:13:53;;;;;;;19.42;11.10;;;17.00;89.50;;;;;;4948799;28;96133;-45
2021/04/07 12:16:24;;;;;;;21.50;11.80;;;17.00;88.20;;;;;;4942792;28;95846;-58
2021/04/07 12:18:54;;;;;;;;;;;16.90;89.30;;;;;;4961774;28;96153;-43
2021/04/07 12:21:24;;;;;;;23.08;11.98;;;16.90;88.80;;;;;;4947367;28;95884;-44
2021/04/07 12:23:55;;;;;;;22.83;12.15;;;16.60;90.40;;;;;;4950352;28;96573;-45
2021/04/07 12:26:26;;;;;;;17.88;12.20;;;16.50;90.40;;;;;;4944712;28;95921;-46
2021/04/07 12:28:57;;;;;;;19.80;11.05;;;16.70;90.00;;;;;;4948544;28;95836;-54
2021/04/07 12:31:28;;;;;;;17.90;12.32;;;16.90;88.50;;;;;;4943744;28;95887;-45
2021/04/07 12:33:59;;;;;;;18.67;12.37;;;16.90;88.20;;;;;;4945669;28;95843;-58
2021/04/07 12:36:31;;;;;;;19.92;11.32;;;16.90;88.50;;;;;;4947456;28;96391;-46
2021/04/07 12:39:05;;;;;;;15.77;11.10;;;17.00;88.10;;;;;;4942689;28;95914;-54
2021/04/07 12:44:09;;;;;;;19.38;11.38;;;17.10;86.80;;;;;;4944691;28;96659;-46
2021/04/07 12:46:42;;;;;;;22.87;12.47;;;16.90;87.10;;;;;;4942862;28;95867;-57
2021/04/07 12:49:12;;;;;;;17.50;11.75;;;16.80;87.10;;;;;;4945011;28;95542;-58
2021/04/07 12:51:42;;;;;;;17.83;11.07;;;16.60;88.00;;;;;;4948215;28;95738;-47
2021/04/07 12:54:13;;;;;;;16.63;11.50;;;16.30;90.00;;;;;;4950121;28;96490;-47
2021/04/07 12:56:43;;;;;;;18.20;11.52;;;16.40;89.40;;;;;;4960578;28;95397;-56
2021/04/07 12:59:14;;;;;;;15.40;11.52;;;16.50;88.90;;;;;;4946384;28;96008;-46
2021/04/07 13:01:44;;;;;;;19.98;11.05;;;16.60;88.80;;;;;;4945007;28;95837;-46
2021/04/07 13:04:15;;;;;;;19.13;11.80;;;16.60;88.50;;;;;;4949884;28;95963;-56
2021/04/07 13:06:46;;;;;;;21.10;11.90;;;16.40;89.60;;;;;;4949688;28;95931;-56
2021/04/07 13:09:16;;;;;;;14.18;10.45;;;16.40;89.70;;;;;;4948144;28;96098;-47
2021/04/07 13:11:45;;;;;;;14.95;11.02;;;16.50;89.00;;;;;;4956452;28;95373;-58
2021/04/07 13:14:15;;;;;;;20.83;12.43;;;16.40;88.10;;;;;;4950173;28;96198;-57